createdAt,value
2019-03-09T00:01:14.253Z,11.53
2019-03-09T00:03:43.814Z,11.49
2019-03-09T00:06:13.667Z,11.48
2019-03-09T00:08:43.187Z,11.49
2019-03-09T00:11:12.691Z,11.49
2019-03-09T00:13:42.190Z,11.43
2019-03-09T00:16:11.684Z,11.40
2019-03-09T00:18:41.143Z,11.40
2019-03-09T00:21:10.645Z,11.52
2019-03-09T00:23:57.797Z,11.57
2019-03-09T00:26:55.534Z,11.49
2019-03-09T00:29:38.709Z,11.50
2019-03-09T00:32:11.026Z,11.45
2019-03-09T00:34:40.758Z,11.33
2019-03-09T00:37:10.255Z,11.26
2019-03-09T00:39:39.683Z,11.10
2019-03-09T00:42:09.185Z,11.01
2019-03-09T00:44:38.674Z,10.93
2019-03-09T00:47:08.429Z,10.80
2019-03-09T00:49:37.913Z,10.76
2019-03-09T00:52:07.441Z,10.64
2019-03-09T00:54:36.954Z,10.62
2019-03-09T00:57:06.447Z,10.61
2019-03-09T00:59:35.925Z,10.61
2019-03-09T01:02:05.367Z,10.61
2019-03-09T01:04:34.861Z,10.61
2019-03-09T01:07:04.341Z,10.63
2019-03-09T01:09:33.806Z,10.70
2019-03-09T01:12:03.317Z,10.78
2019-03-09T01:14:32.919Z,10.77
2019-03-09T01:17:02.410Z,10.75
2019-03-09T01:19:31.884Z,10.70
2019-03-09T01:22:01.365Z,10.63
2019-03-09T01:24:30.828Z,10.57
2019-03-09T01:27:00.346Z,10.53
2019-03-09T01:29:29.798Z,10.56
2019-03-09T01:31:59.284Z,10.57
2019-03-09T01:34:28.764Z,10.61
2019-03-09T01:36:58.230Z,10.63
2019-03-09T01:39:27.829Z,10.66
2019-03-09T01:41:57.369Z,10.68
2019-03-09T01:44:26.850Z,10.68
2019-03-09T01:46:56.350Z,10.59
2019-03-09T01:49:25.935Z,10.63
2019-03-09T01:51:55.429Z,10.59
2019-03-09T01:54:24.917Z,10.70
2019-03-09T01:56:54.424Z,10.74
2019-03-09T01:59:23.899Z,10.83
2019-03-09T02:01:53.422Z,10.88
2019-03-09T02:04:22.952Z,10.81
2019-03-09T02:06:52.407Z,10.84
2019-03-09T02:09:21.945Z,10.88
2019-03-09T02:11:51.457Z,10.85
2019-03-09T02:14:20.920Z,10.88
2019-03-09T02:16:50.511Z,10.81
2019-03-09T02:19:20.023Z,10.73
2019-03-09T02:21:49.537Z,10.73
2019-03-09T02:24:19.085Z,10.69
2019-03-09T02:26:48.597Z,10.70
2019-03-09T02:29:18.091Z,10.72
2019-03-09T02:31:47.593Z,10.68
2019-03-09T02:34:17.052Z,10.71
2019-03-09T02:36:46.557Z,10.63
2019-03-09T02:39:37.846Z,10.63
2019-03-09T02:42:07.325Z,10.61
2019-03-09T02:44:38.589Z,10.63
2019-03-09T02:47:08.107Z,10.62
2019-03-09T02:49:37.615Z,10.53
2019-03-09T02:52:07.239Z,10.45
2019-03-09T02:54:36.750Z,10.46
2019-03-09T02:57:06.240Z,10.46
2019-03-09T02:59:35.692Z,10.45
2019-03-09T03:02:22.808Z,10.40
2019-03-09T03:04:52.233Z,10.46
2019-03-09T03:07:21.727Z,10.48
2019-03-09T03:09:51.241Z,10.52
2019-03-09T03:12:20.667Z,10.54
2019-03-09T03:14:50.230Z,10.41
2019-03-09T03:17:19.731Z,10.44
2019-03-09T03:19:49.184Z,10.43
2019-03-09T03:22:18.672Z,10.43
2019-03-09T03:24:48.194Z,10.37
2019-03-09T03:27:17.676Z,10.35
2019-03-09T03:29:47.158Z,10.28
2019-03-09T03:32:16.735Z,10.33
2019-03-09T03:34:46.232Z,10.38
2019-03-09T03:37:15.689Z,10.32
2019-03-09T03:39:45.180Z,10.24
2019-03-09T03:42:14.636Z,10.09
2019-03-09T03:44:47.174Z,10.05
2019-03-09T03:47:17.592Z,10.09
2019-03-09T03:49:47.098Z,10.15
2019-03-09T03:52:16.661Z,10.05
2019-03-09T03:54:46.176Z,10.04
2019-03-09T03:57:15.650Z,9.99
2019-03-09T03:59:45.151Z,9.91
2019-03-09T04:02:14.717Z,9.91
2019-03-09T04:04:44.151Z,9.91
2019-03-09T04:07:14.166Z,9.93
2019-03-09T04:09:43.833Z,9.93
2019-03-09T04:12:13.664Z,9.94
2019-03-09T04:14:43.231Z,9.99
2019-03-09T04:17:12.738Z,9.92
2019-03-09T04:19:42.254Z,9.84
2019-03-09T04:22:11.804Z,9.81
2019-03-09T04:24:41.392Z,9.68
2019-03-09T04:27:10.868Z,9.76
2019-03-09T04:29:40.424Z,9.81
2019-03-09T04:32:09.934Z,9.80
2019-03-09T04:34:39.487Z,9.92
2019-03-09T04:37:08.977Z,10.03
2019-03-09T04:39:38.489Z,10.03
2019-03-09T04:42:07.975Z,10.14
2019-03-09T04:44:37.460Z,10.22
2019-03-09T04:47:06.938Z,10.23
2019-03-09T04:49:36.437Z,10.20
2019-03-09T04:52:05.933Z,10.17
2019-03-09T04:54:35.370Z,10.19
2019-03-09T04:57:04.872Z,10.13
2019-03-09T04:59:34.378Z,10.14
2019-03-09T05:02:03.906Z,10.14
2019-03-09T05:05:03.814Z,10.12
2019-03-09T05:07:54.711Z,10.09
2019-03-09T05:10:28.014Z,10.14
2019-03-09T05:13:00.785Z,10.18
2019-03-09T05:15:30.231Z,10.21
2019-03-09T05:17:59.722Z,10.20
2019-03-09T05:20:29.252Z,10.18
2019-03-09T05:22:58.789Z,10.19
2019-03-09T05:25:28.288Z,10.22
2019-03-09T05:27:57.847Z,10.23
2019-03-09T05:30:55.292Z,10.22
2019-03-09T05:33:24.773Z,10.22
2019-03-09T05:35:54.249Z,10.18
2019-03-09T05:38:23.743Z,10.06
2019-03-09T05:40:53.241Z,10.10
2019-03-09T05:43:22.735Z,10.19
2019-03-09T05:45:52.213Z,10.32
2019-03-09T05:48:21.702Z,10.32
2019-03-09T05:50:51.192Z,10.31
2019-03-09T05:53:22.348Z,10.39
2019-03-09T05:55:51.959Z,10.43
2019-03-09T05:58:21.454Z,10.53
2019-03-09T06:00:50.911Z,10.66
2019-03-09T06:03:20.384Z,10.73
2019-03-09T06:06:13.089Z,10.79
2019-03-09T06:08:42.892Z,10.92
2019-03-09T06:11:12.376Z,11.04
2019-03-09T06:13:41.933Z,11.04
2019-03-09T06:16:11.446Z,11.11
2019-03-09T06:18:40.966Z,11.21
2019-03-09T06:21:10.512Z,11.28
2019-03-09T06:23:40.011Z,11.21
2019-03-09T06:26:09.529Z,11.17
2019-03-09T06:28:39.084Z,11.20
2019-03-09T06:31:08.806Z,11.17
2019-03-09T06:33:39.281Z,11.16
2019-03-09T06:36:35.995Z,11.13
2019-03-09T06:39:17.078Z,11.16
2019-03-09T06:42:07.798Z,11.18
2019-03-09T06:44:37.293Z,11.15
2019-03-09T06:47:06.769Z,11.30
2019-03-09T06:49:36.268Z,11.39
2019-03-09T06:52:05.752Z,11.49
2019-03-09T06:54:35.243Z,11.56
2019-03-09T06:57:13.463Z,11.59
2019-03-09T06:59:36.009Z,11.60
2019-03-09T07:02:05.593Z,11.63
2019-03-09T07:04:35.092Z,11.56
2019-03-09T07:07:04.638Z,11.72
2019-03-09T07:09:34.134Z,11.80
2019-03-09T07:12:03.663Z,11.96
2019-03-09T07:15:16.323Z,12.04
2019-03-09T07:17:45.840Z,12.09
2019-03-09T07:20:15.461Z,12.17
2019-03-09T07:22:44.997Z,12.31
2019-03-09T07:25:14.575Z,12.41
2019-03-09T07:27:44.107Z,12.53
2019-03-09T07:30:18.033Z,12.64
2019-03-09T07:32:47.566Z,12.70
2019-03-09T07:35:17.048Z,12.85
2019-03-09T07:37:46.561Z,12.86
2019-03-09T07:40:16.371Z,13.00
2019-03-09T07:42:45.878Z,13.12
2019-03-09T07:45:15.672Z,13.28
2019-03-09T07:47:45.493Z,13.35
2019-03-09T07:50:15.170Z,13.46
2019-03-09T07:52:44.660Z,13.55
2019-03-09T07:55:15.035Z,13.64
2019-03-09T07:57:44.547Z,13.76
2019-03-09T08:00:18.594Z,13.91
2019-03-09T08:02:48.154Z,14.05
2019-03-09T08:05:17.953Z,14.23
2019-03-09T08:07:47.495Z,14.32
2019-03-09T08:10:21.932Z,14.47
2019-03-09T08:12:51.415Z,14.54
2019-03-09T08:15:22.363Z,14.66
2019-03-09T08:17:51.881Z,14.79
2019-03-09T08:20:25.851Z,14.84
2019-03-09T08:22:58.140Z,14.93
2019-03-09T08:25:28.724Z,14.99
2019-03-09T08:27:58.255Z,15.10
2019-03-09T08:30:27.935Z,15.22
2019-03-09T08:32:57.842Z,15.30
2019-03-09T08:35:27.299Z,15.46
2019-03-09T08:37:56.820Z,15.63
2019-03-09T08:40:26.320Z,15.67
2019-03-09T08:42:55.871Z,15.71
2019-03-09T08:45:25.381Z,15.76
2019-03-09T08:47:54.862Z,15.80
2019-03-09T08:50:24.411Z,15.92
2019-03-09T08:52:53.895Z,15.92
2019-03-09T08:55:23.421Z,15.99
2019-03-09T08:57:52.930Z,16.02
2019-03-09T09:00:29.915Z,16.08
2019-03-09T09:02:58.917Z,16.21
2019-03-09T09:05:28.380Z,16.25
2019-03-09T09:07:57.891Z,16.36
2019-03-09T09:10:27.416Z,16.31
2019-03-09T09:12:56.876Z,16.41
2019-03-09T09:15:29.122Z,16.58
2019-03-09T09:17:58.664Z,16.63
2019-03-09T09:20:28.204Z,16.78
2019-03-09T09:22:57.714Z,16.91
2019-03-09T09:25:27.222Z,17.01
2019-03-09T09:27:56.834Z,17.18
2019-03-09T09:30:27.441Z,17.25
2019-03-09T09:32:57.095Z,17.18
2019-03-09T09:35:27.067Z,17.19
2019-03-09T09:37:56.517Z,17.19
2019-03-09T09:40:26.181Z,17.28
2019-03-09T09:42:55.767Z,17.44
2019-03-09T09:45:25.643Z,17.51
2019-03-09T09:47:55.126Z,17.49
2019-03-09T09:50:24.650Z,17.38
2019-03-09T09:52:54.219Z,17.56
2019-03-09T09:55:23.800Z,17.58
2019-03-09T09:57:53.365Z,17.44
2019-03-09T10:00:24.644Z,17.53
2019-03-09T10:02:54.171Z,17.63
2019-03-09T10:05:23.770Z,17.79
2019-03-09T10:07:53.278Z,18.03
2019-03-09T10:10:22.901Z,17.72
2019-03-09T10:12:52.708Z,17.78
2019-03-09T10:15:24.175Z,17.89
2019-03-09T10:17:53.703Z,17.78
2019-03-09T10:20:23.239Z,17.77
2019-03-09T10:23:03.100Z,17.75
2019-03-09T10:25:24.007Z,17.85
2019-03-09T10:27:53.630Z,18.00
2019-03-09T10:30:23.165Z,17.98
2019-03-09T10:32:52.859Z,18.07
2019-03-09T10:35:22.394Z,18.06
2019-03-09T10:37:51.905Z,18.09
2019-03-09T10:40:21.634Z,18.27
2019-03-09T10:42:51.115Z,18.52
2019-03-09T10:45:20.640Z,18.65
2019-03-09T10:47:50.242Z,18.61
2019-03-09T10:50:19.988Z,18.58
2019-03-09T10:52:49.718Z,18.59
2019-03-09T10:55:25.410Z,18.68
2019-03-09T10:57:54.957Z,18.74
2019-03-09T11:00:27.141Z,18.63
2019-03-09T11:02:58.591Z,18.47
2019-03-09T11:05:31.199Z,18.20
2019-03-09T11:08:02.112Z,18.10
2019-03-09T11:10:31.586Z,18.14
2019-03-09T11:13:01.296Z,18.20
2019-03-09T11:15:30.896Z,18.33
2019-03-09T11:18:00.499Z,18.35
2019-03-09T11:20:32.832Z,18.40
2019-03-09T11:23:02.658Z,18.43
2019-03-09T11:25:32.179Z,18.46
2019-03-09T11:28:12.500Z,18.55
2019-03-09T11:30:42.046Z,18.64
2019-03-09T11:33:11.605Z,18.65
2019-03-09T11:35:41.120Z,18.63
2019-03-09T11:38:10.656Z,18.78
2019-03-09T11:40:40.130Z,18.91
2019-03-09T11:43:09.649Z,19.05
2019-03-09T11:45:39.190Z,19.18
2019-03-09T11:48:08.767Z,19.34
2019-03-09T11:50:38.318Z,19.39
2019-03-09T11:53:07.796Z,19.49
2019-03-09T11:55:37.349Z,19.39
2019-03-09T11:58:06.863Z,19.36
2019-03-09T12:00:37.291Z,19.27
2019-03-09T12:03:06.835Z,19.28
2019-03-09T12:05:36.370Z,19.32
2019-03-09T12:08:05.908Z,19.34
2019-03-09T12:10:35.437Z,19.22
2019-03-09T12:13:04.987Z,19.45
2019-03-09T12:15:34.544Z,19.47
2019-03-09T12:18:04.070Z,19.29
2019-03-09T12:20:33.571Z,19.35
2019-03-09T12:23:19.415Z,19.62
2019-03-09T12:25:48.957Z,19.68
2019-03-09T12:28:18.447Z,19.49
2019-03-09T12:30:47.972Z,19.79
2019-03-09T12:33:17.502Z,20.03
2019-03-09T12:35:47.016Z,19.98
2019-03-09T12:38:16.577Z,19.81
2019-03-09T12:40:46.111Z,19.89
2019-03-09T12:43:15.629Z,19.91
2019-03-09T12:45:45.098Z,19.88
2019-03-09T12:48:14.605Z,19.86
2019-03-09T12:50:44.136Z,19.85
2019-03-09T12:53:14.305Z,19.79
2019-03-09T12:55:43.775Z,19.78
2019-03-09T12:58:13.290Z,19.83
2019-03-09T13:00:42.774Z,19.81
2019-03-09T13:03:12.416Z,19.63
2019-03-09T13:05:42.012Z,19.58
2019-03-09T13:08:11.504Z,19.58
2019-03-09T13:10:41.081Z,19.34
2019-03-09T13:13:10.588Z,19.21
2019-03-09T13:15:40.127Z,19.34
2019-03-09T13:18:09.689Z,19.51
2019-03-09T13:20:39.207Z,19.51
2019-03-09T13:23:08.747Z,19.38
2019-03-09T13:25:38.809Z,19.43
2019-03-09T13:28:08.494Z,19.34
2019-03-09T13:30:37.995Z,19.44
2019-03-09T13:33:07.561Z,19.58
2019-03-09T13:35:37.068Z,19.59
2019-03-09T13:38:06.573Z,19.62
2019-03-09T13:40:36.023Z,19.57
2019-03-09T13:43:05.565Z,19.54
2019-03-09T13:45:35.108Z,19.34
2019-03-09T13:48:04.634Z,19.31
2019-03-09T13:50:34.107Z,19.43
2019-03-09T13:53:03.636Z,19.50
2019-03-09T13:55:33.103Z,19.49
2019-03-09T13:58:02.654Z,19.39
2019-03-09T14:00:40.145Z,19.37
2019-03-09T14:03:03.710Z,19.38
2019-03-09T14:05:33.323Z,19.29
2019-03-09T14:08:02.824Z,19.30
2019-03-09T14:10:32.497Z,19.39
2019-03-09T14:13:02.042Z,19.40
2019-03-09T14:15:31.609Z,19.34
2019-03-09T14:18:01.125Z,19.38
2019-03-09T14:20:30.646Z,19.35
2019-03-09T14:23:00.243Z,19.34
2019-03-09T14:25:29.754Z,19.35
2019-03-09T14:27:59.251Z,19.33
2019-03-09T14:30:28.804Z,19.35
2019-03-09T14:32:58.256Z,19.36
2019-03-09T14:35:27.798Z,19.32
2019-03-09T14:37:57.364Z,19.28
2019-03-09T14:40:26.813Z,19.32
2019-03-09T14:42:56.359Z,19.36
2019-03-09T14:45:25.900Z,19.27
2019-03-09T14:47:55.413Z,19.28
2019-03-09T14:50:24.879Z,19.28
2019-03-09T14:52:54.377Z,19.23
2019-03-09T14:55:23.907Z,19.16
2019-03-09T14:57:53.411Z,19.10
2019-03-09T15:00:22.911Z,19.00
2019-03-09T15:02:52.483Z,18.93
2019-03-09T15:05:22.053Z,18.92
2019-03-09T15:07:51.719Z,18.94
2019-03-09T15:10:21.262Z,18.83
2019-03-09T15:12:50.951Z,18.85
2019-03-09T15:15:20.582Z,18.82
2019-03-09T15:17:50.039Z,18.86
2019-03-09T15:20:19.568Z,18.93
2019-03-09T15:22:49.033Z,18.95
2019-03-09T15:25:18.632Z,18.91
2019-03-09T15:27:48.507Z,18.88
2019-03-09T15:30:18.248Z,18.82
2019-03-09T15:32:47.770Z,18.76
2019-03-09T15:35:17.280Z,18.71
2019-03-09T15:37:46.878Z,18.71
2019-03-09T15:40:17.767Z,18.65
2019-03-09T15:42:47.286Z,18.60
2019-03-09T15:45:17.023Z,18.56
2019-03-09T15:47:46.763Z,18.58
2019-03-09T15:50:16.703Z,18.60
2019-03-09T15:52:46.252Z,18.55
2019-03-09T15:55:16.149Z,18.50
2019-03-09T15:57:48.168Z,18.51
2019-03-09T16:00:18.972Z,18.44
2019-03-09T16:02:48.577Z,18.46
2019-03-09T16:05:18.313Z,18.47
2019-03-09T16:07:47.825Z,18.46
2019-03-09T16:10:17.467Z,18.42
2019-03-09T16:12:46.954Z,18.40
2019-03-09T16:15:16.888Z,18.32
2019-03-09T16:17:46.454Z,18.24
2019-03-09T16:20:16.739Z,18.19
2019-03-09T16:22:46.285Z,18.14
2019-03-09T16:25:16.048Z,18.12
2019-03-09T16:27:45.553Z,18.11
2019-03-09T16:30:18.685Z,18.07
2019-03-09T16:32:48.317Z,17.98
2019-03-09T16:35:17.886Z,17.96
2019-03-09T16:37:47.436Z,17.90
2019-03-09T16:40:17.021Z,17.84
2019-03-09T16:42:46.616Z,17.81
2019-03-09T16:45:16.420Z,17.79
2019-03-09T16:47:46.010Z,17.76
2019-03-09T16:50:15.659Z,17.77
2019-03-09T16:52:45.639Z,17.73
2019-03-09T16:55:15.241Z,17.69
2019-03-09T16:57:44.746Z,17.66
2019-03-09T17:00:16.780Z,17.67
2019-03-09T17:02:46.387Z,17.64
2019-03-09T17:05:16.047Z,17.65
2019-03-09T17:07:45.558Z,17.65
2019-03-09T17:10:15.389Z,17.65
2019-03-09T17:12:44.989Z,17.58
2019-03-09T17:15:15.125Z,17.49
2019-03-09T17:17:45.148Z,17.44
2019-03-09T17:20:15.224Z,17.39
2019-03-09T17:22:44.849Z,17.32
2019-03-09T17:25:15.065Z,17.23
2019-03-09T17:27:44.991Z,17.13
2019-03-09T17:30:16.300Z,17.08
2019-03-09T17:32:45.801Z,16.98
2019-03-09T17:35:15.333Z,16.94
2019-03-09T17:37:44.967Z,16.96
2019-03-09T17:40:14.615Z,16.45
2019-03-09T17:42:44.094Z,15.96
2019-03-09T17:45:16.169Z,15.51
2019-03-09T17:47:45.691Z,15.24
2019-03-09T17:50:15.400Z,14.96
2019-03-09T17:52:45.051Z,14.72
2019-03-09T17:55:14.569Z,14.59
2019-03-09T17:57:44.151Z,14.47
2019-03-09T18:00:16.302Z,14.41
2019-03-09T18:02:45.867Z,14.36
2019-03-09T18:05:15.422Z,14.17
2019-03-09T18:07:44.928Z,14.09
2019-03-09T18:10:35.063Z,13.86
2019-03-09T18:13:04.638Z,13.67
2019-03-09T18:15:34.146Z,13.58
2019-03-09T18:18:03.765Z,13.55
2019-03-09T18:20:33.271Z,13.53
2019-03-09T18:23:02.860Z,13.49
2019-03-09T18:25:32.368Z,13.44
2019-03-09T18:28:01.945Z,13.45
2019-03-09T18:30:31.462Z,13.49
2019-03-09T18:33:01.022Z,13.45
2019-03-09T18:35:30.602Z,13.51
2019-03-09T18:38:00.202Z,13.52
2019-03-09T18:40:29.737Z,13.51
2019-03-09T18:42:59.249Z,13.56
2019-03-09T18:45:28.779Z,13.59
2019-03-09T18:47:58.334Z,13.60
2019-03-09T18:50:27.843Z,13.59
2019-03-09T18:52:57.346Z,13.69
2019-03-09T18:55:26.888Z,13.75
2019-03-09T18:57:56.399Z,13.81
2019-03-09T19:00:25.907Z,13.85
2019-03-09T19:02:55.496Z,13.86
2019-03-09T19:05:26.281Z,13.87
2019-03-09T19:07:55.800Z,13.94
2019-03-09T19:10:25.326Z,13.98
2019-03-09T19:12:54.771Z,13.94
2019-03-09T19:15:24.258Z,13.95
2019-03-09T19:17:53.861Z,13.93
2019-03-09T19:20:23.495Z,13.97
2019-03-09T19:22:53.019Z,14.01
2019-03-09T19:25:22.662Z,14.02
2019-03-09T19:27:52.221Z,14.04
2019-03-09T19:30:21.685Z,13.95
2019-03-09T19:32:59.813Z,13.94
2019-03-09T19:35:22.417Z,13.85
2019-03-09T19:37:51.874Z,13.75
2019-03-09T19:40:21.403Z,13.62
2019-03-09T19:42:50.992Z,13.57
2019-03-09T19:45:20.479Z,13.52
2019-03-09T19:47:50.039Z,13.52
2019-03-09T19:50:19.623Z,13.59
2019-03-09T19:52:49.237Z,13.60
2019-03-09T19:55:18.883Z,13.56
2019-03-09T19:57:48.381Z,13.61
2019-03-09T20:00:17.999Z,13.66
2019-03-09T20:02:47.509Z,13.71
2019-03-09T20:05:17.103Z,13.69
2019-03-09T20:07:46.596Z,13.70
2019-03-09T20:10:16.263Z,13.71
2019-03-09T20:12:45.760Z,13.71
2019-03-09T20:15:15.756Z,13.74
2019-03-09T20:17:45.941Z,13.75
2019-03-09T20:20:15.953Z,13.71
2019-03-09T20:22:45.518Z,13.57
2019-03-09T20:25:15.035Z,13.41
2019-03-09T20:27:44.602Z,13.24
2019-03-09T20:30:14.986Z,13.12
2019-03-09T20:32:44.514Z,13.09
2019-03-09T20:35:14.137Z,13.05
2019-03-09T20:37:43.721Z,13.02
2019-03-09T20:40:13.658Z,12.98
2019-03-09T20:42:43.179Z,13.05
2019-03-09T20:45:14.662Z,13.08
2019-03-09T20:47:44.453Z,13.20
2019-03-09T20:50:14.941Z,13.20
2019-03-09T20:52:44.506Z,13.23
2019-03-09T20:55:14.008Z,13.24
2019-03-09T20:57:43.528Z,13.25
2019-03-09T21:00:15.133Z,13.25
2019-03-09T21:02:44.643Z,13.25
2019-03-09T21:05:14.425Z,13.27
2019-03-09T21:07:44.014Z,13.25
2019-03-09T21:10:14.779Z,13.25
2019-03-09T21:13:04.983Z,13.30
2019-03-09T21:15:34.475Z,13.32
2019-03-09T21:18:03.999Z,13.34
2019-03-09T21:20:33.504Z,13.29
2019-03-09T21:23:03.171Z,13.29
2019-03-09T21:25:32.779Z,13.29
2019-03-09T21:28:02.261Z,13.28
2019-03-09T21:30:31.743Z,13.28
2019-03-09T21:33:01.224Z,13.27
2019-03-09T21:35:30.757Z,13.22
2019-03-09T21:38:00.406Z,13.18
2019-03-09T21:40:30.017Z,13.15
2019-03-09T21:42:59.569Z,13.13
2019-03-09T21:45:29.160Z,13.17
2019-03-09T21:47:58.663Z,13.15
2019-03-09T21:50:28.173Z,13.12
2019-03-09T21:52:57.666Z,13.11
2019-03-09T21:55:27.159Z,13.14
2019-03-09T21:57:56.680Z,13.17
2019-03-09T22:00:26.306Z,13.15
2019-03-09T22:02:55.794Z,13.09
2019-03-09T22:05:25.340Z,13.04
2019-03-09T22:07:55.846Z,13.02
2019-03-09T22:10:25.568Z,12.99
2019-03-09T22:12:55.082Z,12.99
2019-03-09T22:15:24.598Z,12.95
2019-03-09T22:17:54.063Z,12.87
2019-03-09T22:20:23.572Z,12.88
2019-03-09T22:22:53.057Z,12.88
2019-03-09T22:25:22.544Z,12.90
2019-03-09T22:27:52.100Z,12.90
2019-03-09T22:30:21.639Z,12.86
2019-03-09T22:32:51.191Z,12.91
2019-03-09T22:35:20.654Z,12.99
2019-03-09T22:37:50.113Z,13.02
2019-03-09T22:40:19.651Z,13.05
2019-03-09T22:42:49.085Z,13.07
2019-03-09T22:45:18.574Z,13.04
2019-03-09T22:47:48.096Z,13.02
2019-03-09T22:50:17.728Z,13.01
2019-03-09T22:52:47.195Z,12.97
2019-03-09T22:55:16.791Z,12.95
2019-03-09T22:57:46.290Z,12.92
2019-03-09T23:00:17.779Z,12.87
2019-03-09T23:02:47.291Z,12.89
2019-03-09T23:05:17.105Z,12.77
2019-03-09T23:07:46.576Z,12.74
2019-03-09T23:10:16.908Z,12.71
2019-03-09T23:12:46.394Z,12.74
2019-03-09T23:15:16.397Z,12.74
2019-03-09T23:17:46.141Z,12.75
2019-03-09T23:20:16.940Z,12.74
2019-03-09T23:22:46.443Z,12.68
2019-03-09T23:25:16.683Z,12.71
2019-03-09T23:27:46.198Z,12.67
2019-03-09T23:30:16.890Z,12.74
2019-03-09T23:32:46.432Z,12.76
2019-03-09T23:35:16.438Z,12.76
2019-03-09T23:37:46.326Z,12.73
2019-03-09T23:40:16.516Z,12.71
2019-03-09T23:42:46.015Z,12.72
2019-03-09T23:45:16.470Z,12.74
2019-03-09T23:47:46.118Z,12.73
2019-03-09T23:50:16.182Z,12.72
2019-03-09T23:52:46.084Z,12.75
2019-03-09T23:55:22.442Z,12.73
2019-03-09T23:57:48.416Z,12.72
